Time;durP1;ratioP1;P1;durP2;ratioP2;P2;SDS_P1;SDS_P2;PMS_P1;PMS_P2;Temp;Humidity;BMP_temperature;BMP_pressure;BME280_temperature;BME280_humidity;BME280_pressure;Samples;Min_cycle;Max_cycle;Signal;HPM_P1;HPM_P2
2023/01/01 00:01:17;;;;;;;11.50;6.97;;;;;;;16.21;52.06;99627.63;5077626;28;20477;-66
2023/01/01 00:03:49;;;;;;;13.03;4.67;;;;;;;16.22;52.38;99623.09;5075566;28;20471;-67
2023/01/01 00:06:16;;;;;;;17.27;5.90;;;;;;;16.41;51.60;99627.84;5079025;28;20475;-66
2023/01/01 00:08:43;;;;;;;8.20;5.00;;;;;;;16.32;51.66;99621.75;5078163;28;20461;-66
2023/01/01 00:11:10;;;;;;;12.20;4.90;;;;;;;16.34;51.72;99614.28;5082359;28;20508;-66
2023/01/01 00:13:39;;;;;;;9.67;4.17;;;;;;;16.37;51.66;99618.47;5078643;28;20509;-66
2023/01/01 00:16:07;;;;;;;9.73;4.57;;;;;;;16.30;52.04;99617.56;5077877;28;20506;-66
2023/01/01 00:18:33;;;;;;;13.83;5.47;;;;;;;16.32;52.25;99610.94;5092094;28;20446;-66
2023/01/01 00:21:06;;;;;;;12.47;3.67;;;;;;;16.26;52.04;99618.97;5086038;28;20509;-66
2023/01/01 00:23:34;;;;;;;6.90;4.20;;;;;;;16.37;52.06;99613.91;5097594;28;20463;-67
2023/01/01 00:26:01;;;;;;;7.10;5.03;;;;;;;16.41;52.14;99624.31;5098588;28;20468;-67
2023/01/01 00:28:28;;;;;;;9.40;4.37;;;;;;;16.33;52.20;99626.09;5101309;28;20444;-63
2023/01/01 00:30:55;;;;;;;9.47;4.73;;;;;;;16.24;52.39;99629.94;5103551;28;20476;-63
2023/01/01 00:33:22;;;;;;;12.30;3.93;;;;;;;16.29;52.52;99632.91;5099799;28;20480;-63
2023/01/01 00:35:48;;;;;;;8.90;3.90;;;;;;;16.34;52.15;99643.97;5099659;28;20473;-64
2023/01/01 00:38:16;;;;;;;6.90;3.43;;;;;;;16.33;52.29;99634.19;5101188;28;20472;-63
2023/01/01 00:40:43;;;;;;;7.20;3.57;;;;;;;16.31;52.10;99635.41;5098759;28;20476;-61
2023/01/01 00:43:11;;;;;;;8.80;4.90;;;;;;;16.38;51.91;99628.22;5102070;28;20823;-61
2023/01/01 00:45:38;;;;;;;6.27;3.97;;;;;;;16.43;52.09;99635.75;5082916;28;20471;-61
2023/01/01 00:48:05;;;;;;;16.37;4.73;;;;;;;16.44;52.25;99651.75;5084224;28;20464;-61
2023/01/01 00:50:32;;;;;;;10.80;4.17;;;;;;;16.46;51.95;99629.97;5080958;28;20487;-61
2023/01/01 00:52:59;;;;;;;11.97;5.40;;;;;;;16.44;52.02;99632.84;5083183;28;21020;-61
2023/01/01 00:55:27;;;;;;;9.63;4.43;;;;;;;16.36;51.85;99650.00;5084355;28;20461;-62
2023/01/01 00:57:55;;;;;;;14.90;5.20;;;;;;;16.43;52.05;99650.06;5081487;28;20456;-64
2023/01/01 01:00:22;;;;;;;10.00;4.67;;;;;;;16.46;51.83;99656.94;5081913;28;20444;-62
2023/01/01 01:02:48;;;;;;;11.43;5.57;;;;;;;16.42;52.03;99651.06;5082835;28;20507;-61
2023/01/01 01:05:15;;;;;;;12.23;4.83;;;;;;;16.36;51.83;99655.38;5081633;28;20479;-62
2023/01/01 01:07:43;;;;;;;9.20;5.30;;;;;;;16.42;51.71;99645.69;5082637;28;21024;-62
2023/01/01 01:10:10;;;;;;;14.60;4.87;;;;;;;16.48;52.43;99647.63;5084066;28;20439;-62
2023/01/01 01:12:39;;;;;;;7.10;4.90;;;;;;;16.40;52.07;99647.72;5083524;28;20459;-63
2023/01/01 01:15:07;;;;;;;12.50;5.50;;;;;;;16.44;51.93;99629.28;5081304;28;20507;-63
2023/01/01 01:17:34;;;;;;;9.73;5.33;;;;;;;16.43;52.37;99651.94;5081474;28;20506;-62
2023/01/01 01:20:01;;;;;;;12.13;5.93;;;;;;;16.36;52.10;99639.19;5082009;28;20487;-61
2023/01/01 01:22:28;;;;;;;14.17;5.70;;;;;;;16.42;51.83;99653.78;5081987;28;20492;-62
2023/01/01 01:24:54;;;;;;;11.70;5.50;;;;;;;16.47;51.82;99647.81;5088128;28;20501;-61
2023/01/01 01:27:21;;;;;;;14.63;5.83;;;;;;;16.38;52.26;99649.78;5088628;28;20476;-62
2023/01/01 01:29:49;;;;;;;10.47;5.33;;;;;;;16.33;51.81;99652.25;5103146;28;20454;-62
2023/01/01 01:32:16;;;;;;;9.37;5.80;;;;;;;16.31;51.84;99659.69;5093344;28;20488;-62
2023/01/01 01:34:42;;;;;;;9.20;5.43;;;;;;;16.36;51.56;99652.69;5084555;28;20480;-62
2023/01/01 01:37:10;;;;;;;10.67;5.37;;;;;;;16.38;51.14;99671.38;5084190;28;20492;-62
2023/01/01 01:39:37;;;;;;;9.97;4.77;;;;;;;16.40;51.73;99672.00;5097506;28;20556;-62
2023/01/01 01:42:04;;;;;;;11.03;5.60;;;;;;;16.40;51.57;99665.78;5094823;28;20868;-62
2023/01/01 01:44:53;;;;;;;13.73;5.50;;;;;;;16.33;51.79;99665.72;5100861;28;20932;-63
2023/01/01 01:47:26;;;;;;;11.10;4.97;;;;;;;16.20;51.07;99639.47;5101777;28;20812;-63
2023/01/01 01:49:55;;;;;;;7.53;4.27;;;;;;;16.27;51.33;99670.03;5098534;28;20521;-61
2023/01/01 01:52:21;;;;;;;8.50;5.97;;;;;;;16.27;51.41;99666.50;5102378;28;20491;-63
2023/01/01 01:54:49;;;;;;;7.27;4.37;;;;;;;16.27;51.45;99669.22;5087479;28;20476;-63
2023/01/01 01:57:16;;;;;;;7.73;4.40;;;;;;;16.19;50.86;99653.97;5102133;28;20481;-63
2023/01/01 01:59:47;;;;;;;9.13;4.53;;;;;;;16.26;51.26;99676.44;5098642;28;20813;-64
2023/01/01 02:02:34;;;;;;;11.97;4.40;;;;;;;16.12;51.04;99670.06;5102213;28;20476;-64
2023/01/01 02:05:01;;;;;;;8.13;4.20;;;;;;;16.29;51.05;99677.94;5084772;28;20454;-64
2023/01/01 02:07:30;;;;;;;9.90;5.00;;;;;;;16.18;50.84;99676.59;5100879;28;20480;-63
2023/01/01 02:09:57;;;;;;;8.30;4.23;;;;;;;16.21;50.52;99669.97;5097791;28;20999;-64
2023/01/01 02:12:24;;;;;;;13.90;4.80;;;;;;;16.12;51.35;99666.56;5083350;28;20485;-64
2023/01/01 02:14:51;;;;;;;11.17;4.60;;;;;;;16.06;50.88;99675.38;5087773;28;21047;-63
2023/01/01 02:17:23;;;;;;;8.53;5.17;;;;;;;16.03;51.04;99678.50;5089309;28;20486;-62
2023/01/01 02:20:03;;;;;;;7.17;3.87;;;;;;;15.99;50.92;99673.47;5101080;28;20471;-63
2023/01/01 02:22:42;;;;;;;8.10;4.30;;;;;;;16.07;51.10;99677.06;5097014;28;20484;-63
2023/01/01 02:25:13;;;;;;;7.40;4.77;;;;;;;16.04;51.03;99682.84;5086771;28;20476;-63
2023/01/01 02:27:49;;;;;;;7.00;4.00;;;;;;;16.08;50.42;99682.28;5089370;28;20452;-63
2023/01/01 02:30:18;;;;;;;14.00;4.53;;;;;;;16.08;49.84;99679.59;5088350;28;20443;-63
2023/01/01 02:32:48;;;;;;;12.53;4.50;;;;;;;16.08;50.21;99686.84;5102512;28;20443;-64
2023/01/01 02:35:37;;;;;;;9.87;4.93;;;;;;;16.11;49.74;99678.34;5085723;28;20487;-64
2023/01/01 02:38:08;;;;;;;9.30;5.53;;;;;;;15.97;49.93;99675.53;5093349;28;20556;-64
2023/01/01 02:40:36;;;;;;;6.60;4.13;;;;;;;16.03;50.09;99682.00;5083615;28;20501;-64
2023/01/01 02:43:04;;;;;;;11.73;4.80;;;;;;;15.98;49.52;99681.75;5079027;28;20456;-64
2023/01/01 02:45:32;;;;;;;12.57;5.23;;;;;;;15.95;49.23;99677.59;5060094;28;20504;-62
2023/01/01 02:48:03;;;;;;;9.77;4.10;;;;;;;15.96;49.41;99684.63;5073390;28;20457;-64
2023/01/01 02:50:30;;;;;;;7.60;4.57;;;;;;;15.97;48.88;99690.84;5072712;28;20475;-64
2023/01/01 02:53:07;;;;;;;7.57;4.63;;;;;;;15.97;48.99;99689.00;5081876;28;20467;-64
2023/01/01 02:55:46;;;;;;;6.40;3.83;;;;;;;15.87;48.71;99680.38;5079432;28;20476;-64
2023/01/01 03:01:08;;;;;;;9.73;3.57;;;;;;;15.99;47.88;99696.91;5080433;28;20540;-63
2023/01/01 03:03:38;;;;;;;8.13;3.30;;;;;;;16.01;47.44;99681.38;5067851;28;20455;-63
2023/01/01 03:06:25;;;;;;;6.83;3.27;;;;;;;16.00;47.43;99688.63;5060711;28;20503;-63
2023/01/01 03:08:58;;;;;;;5.77;3.43;;;;;;;15.85;47.64;99677.03;5061473;28;20446;-61
2023/01/01 03:11:28;;;;;;;10.10;3.57;;;;;;;15.85;47.56;99666.25;5066714;28;20957;-61
2023/01/01 03:14:00;;;;;;;8.23;3.60;;;;;;;15.74;47.80;99681.00;5066806;28;20470;-61
2023/01/01 03:16:32;;;;;;;7.53;4.53;;;;;;;15.77;47.82;99671.75;5060406;28;20508;-61
2023/01/01 03:19:13;;;;;;;9.13;2.90;;;;;;;15.78;47.45;99673.44;5065229;28;20450;-61
2023/01/01 03:21:42;;;;;;;5.37;3.60;;;;;;;15.74;47.96;99685.56;5060974;28;20514;-61
2023/01/01 03:24:13;;;;;;;5.60;2.67;;;;;;;15.71;47.53;99662.53;5065741;28;20496;-62
2023/01/01 03:26:40;;;;;;;7.47;3.70;;;;;;;15.60;47.82;99687.25;5060094;28;20489;-61
2023/01/01 03:29:09;;;;;;;6.70;2.90;;;;;;;15.71;47.62;99697.56;5066673;28;20455;-60
2023/01/01 03:31:39;;;;;;;7.17;2.53;;;;;;;15.64;47.38;99680.50;5060400;28;20481;-61
2023/01/01 03:34:09;;;;;;;8.63;2.30;;;;;;;15.74;47.70;99699.03;5080444;28;20859;-60
2023/01/01 03:36:37;;;;;;;6.83;3.27;;;;;;;15.62;48.13;99698.69;5068889;28;20899;-60
2023/01/01 03:39:06;;;;;;;7.67;2.63;;;;;;;15.64;48.20;99702.03;5073211;28;20463;-60
2023/01/01 03:41:36;;;;;;;4.60;2.00;;;;;;;15.58;48.32;99703.59;5100704;28;20473;-60
2023/01/01 03:44:07;;;;;;;7.47;2.50;;;;;;;15.66;48.12;99705.38;5087980;28;20570;-60
2023/01/01 03:46:35;;;;;;;4.87;2.30;;;;;;;15.60;48.12;99709.63;5084822;28;20510;-60
2023/01/01 03:49:05;;;;;;;6.53;2.53;;;;;;;15.60;47.94;99722.28;5087826;28;20461;-60
2023/01/01 03:51:58;;;;;;;6.37;2.97;;;;;;;15.60;47.73;99701.56;5093862;28;20476;-61
2023/01/01 03:54:33;;;;;;;4.03;1.90;;;;;;;15.59;47.89;99709.84;5093157;28;20840;-62
2023/01/01 03:57:07;;;;;;;8.57;2.17;;;;;;;15.58;48.14;99703.59;5083219;28;21014;-61
2023/01/01 03:59:39;;;;;;;7.63;2.13;;;;;;;15.63;48.22;99697.66;5089899;28;20447;-61
2023/01/01 04:02:07;;;;;;;4.33;2.30;;;;;;;15.50;48.01;99694.78;5093909;28;20516;-61
2023/01/01 04:04:35;;;;;;;3.60;1.90;;;;;;;15.43;48.66;99709.00;5103073;28;20466;-61
2023/01/01 04:07:02;;;;;;;5.50;2.20;;;;;;;15.40;48.57;99698.59;5090246;28;20484;-61
2023/01/01 04:09:30;;;;;;;7.40;2.23;;;;;;;15.47;48.33;99695.16;5071860;28;20455;-61
2023/01/01 04:12:04;;;;;;;7.43;2.10;;;;;;;15.33;49.33;99704.91;5083443;28;20477;-62
2023/01/01 04:14:33;;;;;;;5.23;1.70;;;;;;;15.53;48.37;99705.19;5101923;28;20639;-62
2023/01/01 04:17:00;;;;;;;4.90;2.20;;;;;;;15.39;48.82;99705.00;5104353;28;20506;-62
2023/01/01 04:19:27;;;;;;;2.03;1.63;;;;;;;15.43;48.69;99689.31;5097061;28;20485;-61
2023/01/01 04:21:55;;;;;;;3.00;1.70;;;;;;;15.55;48.86;99703.16;5103851;28;20478;-61
2023/01/01 04:24:22;;;;;;;4.27;1.80;;;;;;;15.54;48.60;99723.03;5082094;28;20927;-61
2023/01/01 04:26:50;;;;;;;4.47;1.50;;;;;;;15.46;49.09;99710.50;5097333;28;20556;-61
2023/01/01 04:29:17;;;;;;;5.33;1.70;;;;;;;15.42;48.83;99703.81;5097122;28;20704;-62
2023/01/01 04:31:43;;;;;;;2.73;1.67;;;;;;;15.48;48.84;99711.13;5103860;28;20474;-61
2023/01/01 04:34:10;;;;;;;3.50;1.27;;;;;;;15.55;48.40;99711.22;5103472;28;20482;-62
2023/01/01 04:36:37;;;;;;;4.47;2.43;;;;;;;15.48;49.13;99734.56;5103131;28;20487;-61
2023/01/01 04:39:06;;;;;;;7.13;1.80;;;;;;;15.51;49.33;99731.50;5087486;28;20863;-61
2023/01/01 04:41:33;;;;;;;3.20;1.73;;;;;;;15.50;49.27;99746.84;5070357;28;20470;-60
2023/01/01 04:44:01;;;;;;;3.70;2.03;;;;;;;15.48;49.25;99735.38;5077197;28;20478;-61
2023/01/01 04:46:28;;;;;;;5.37;1.93;;;;;;;15.38;49.58;99746.44;5083429;28;20478;-61
2023/01/01 04:48:54;;;;;;;4.30;1.60;;;;;;;15.44;49.09;99737.59;5067913;28;20454;-62
2023/01/01 04:51:21;;;;;;;3.40;1.47;;;;;;;15.43;49.52;99749.41;5063174;28;20557;-61
2023/01/01 04:53:48;;;;;;;3.90;1.37;;;;;;;15.33;49.62;99734.53;5064273;28;20446;-62
2023/01/01 04:56:22;;;;;;;7.70;1.80;;;;;;;15.35;50.16;99745.97;5063109;28;20871;-61
2023/01/01 04:58:52;;;;;;;3.57;1.30;;;;;;;15.28;50.44;99755.81;5065337;28;20452;-61
2023/01/01 05:01:21;;;;;;;3.00;1.17;;;;;;;15.35;50.16;99732.50;5063143;28;20969;-60
2023/01/01 05:03:49;;;;;;;3.20;1.87;;;;;;;15.36;50.16;99742.25;5062441;28;20478;-60
2023/01/01 05:06:16;;;;;;;4.47;1.40;;;;;;;15.27;50.61;99754.13;5063071;28;20482;-61
2023/01/01 05:08:44;;;;;;;3.13;1.90;;;;;;;15.30;50.64;99759.97;5071562;28;20461;-60
2023/01/01 05:11:13;;;;;;;3.50;1.60;;;;;;;15.35;50.30;99773.75;5079928;28;20501;-60
2023/01/01 05:13:42;;;;;;;2.90;1.53;;;;;;;15.38;50.03;99777.91;5076047;28;20455;-60
2023/01/01 05:16:11;;;;;;;4.97;1.90;;;;;;;15.46;50.20;99777.84;5079733;28;20539;-61
2023/01/01 05:18:38;;;;;;;4.93;2.00;;;;;;;15.35;49.90;99762.13;5063282;28;20484;-61
2023/01/01 05:21:07;;;;;;;6.67;2.80;;;;;;;15.35;50.19;99784.50;5062015;28;20534;-60
2023/01/01 05:23:34;;;;;;;4.60;2.43;;;;;;;15.39;50.26;99787.69;5075520;28;20448;-61
2023/01/01 05:26:01;;;;;;;4.20;1.90;;;;;;;15.41;50.09;99774.84;5063216;28;20540;-61
2023/01/01 05:28:28;;;;;;;3.93;1.90;;;;;;;15.32;50.39;99784.88;5079608;28;20541;-61
2023/01/01 05:30:56;;;;;;;4.53;1.33;;;;;;;15.41;50.52;99801.78;5072378;28;20484;-62
2023/01/01 05:33:23;;;;;;;2.87;1.83;;;;;;;15.28;50.89;99799.72;5078406;28;20456;-61
2023/01/01 05:35:54;;;;;;;2.60;1.30;;;;;;;15.37;50.94;99817.50;5080504;28;20483;-61
2023/01/01 05:38:21;;;;;;;5.00;1.80;;;;;;;15.37;50.80;99804.00;5078733;28;20459;-61
2023/01/01 05:40:48;;;;;;;5.33;1.53;;;;;;;15.35;51.11;99791.78;5082313;28;20995;-62
2023/01/01 05:43:16;;;;;;;3.90;1.07;;;;;;;15.28;51.04;99786.28;5082981;28;20450;-61
2023/01/01 05:45:44;;;;;;;4.40;1.40;;;;;;;15.21;51.71;99796.94;5063254;28;20502;-60
2023/01/01 05:48:12;;;;;;;8.40;2.10;;;;;;;15.28;51.94;99815.91;5078440;28;20462;-61
2023/01/01 05:50:39;;;;;;;4.43;1.60;;;;;;;15.23;52.04;99819.13;5079784;28;20468;-62
2023/01/01 05:53:05;;;;;;;4.57;1.20;;;;;;;15.19;52.19;99819.66;5082741;28;20448;-61
2023/01/01 05:55:32;;;;;;;4.10;1.40;;;;;;;15.12;52.40;99818.72;5081263;28;20480;-62
2023/01/01 05:57:59;;;;;;;4.07;1.67;;;;;;;15.05;52.69;99814.06;5074106;28;20481;-62
2023/01/01 06:00:27;;;;;;;7.67;1.57;;;;;;;15.09;52.59;99809.16;5062538;28;20873;-63
2023/01/01 06:02:53;;;;;;;4.23;1.60;;;;;;;15.18;52.52;99808.06;5077721;28;20439;-61
2023/01/01 06:05:22;;;;;;;2.43;1.00;;;;;;;15.10;53.26;99820.75;5074273;28;20460;-61
2023/01/01 06:07:48;;;;;;;2.70;1.20;;;;;;;15.07;53.29;99821.97;5064312;28;20455;-62
2023/01/01 06:10:15;;;;;;;7.90;1.30;;;;;;;14.98;53.42;99804.19;5081639;28;20447;-61
2023/01/01 06:12:42;;;;;;;3.50;1.30;;;;;;;14.97;53.24;99815.97;5077970;28;20463;-62
2023/01/01 06:15:09;;;;;;;5.17;1.40;;;;;;;14.96;53.68;99814.28;5081757;28;20527;-62
2023/01/01 06:17:36;;;;;;;4.07;1.73;;;;;;;14.87;54.04;99813.53;5070343;28;20454;-62
2023/01/01 06:20:06;;;;;;;3.73;1.37;;;;;;;14.84;54.10;99824.63;5070909;28;20775;-62
2023/01/01 06:22:36;;;;;;;4.93;1.03;;;;;;;14.83;54.60;99820.28;5061988;28;20500;-62
2023/01/01 06:25:03;;;;;;;6.00;1.53;;;;;;;14.93;53.97;99828.97;5064672;28;20438;-61
2023/01/01 06:27:29;;;;;;;4.67;1.40;;;;;;;14.87;54.15;99830.50;5061011;28;20484;-61
2023/01/01 06:29:56;;;;;;;3.17;1.57;;;;;;;14.86;54.08;99830.69;5062452;28;20442;-62
2023/01/01 06:32:23;;;;;;;3.37;1.60;;;;;;;14.81;54.50;99831.22;5061693;28;20476;-60
2023/01/01 06:34:50;;;;;;;4.87;1.80;;;;;;;14.86;54.10;99847.69;5063329;28;20491;-62
2023/01/01 06:37:17;;;;;;;2.73;1.43;;;;;;;14.81;54.46;99863.53;5077318;28;20494;-61
2023/01/01 06:39:45;;;;;;;5.40;1.40;;;;;;;14.84;54.83;99870.38;5071325;28;20593;-61
2023/01/01 06:42:12;;;;;;;4.90;1.50;;;;;;;14.63;55.18;99874.56;5095194;28;20497;-61
2023/01/01 06:44:38;;;;;;;6.17;1.60;;;;;;;14.74;54.99;99877.84;5100288;28;20444;-60
2023/01/01 06:47:05;;;;;;;4.93;1.67;;;;;;;14.83;54.65;99876.81;5081129;28;20478;-60
2023/01/01 06:49:32;;;;;;;2.80;1.97;;;;;;;14.74;54.99;99883.22;5094231;28;20461;-61
2023/01/01 06:51:59;;;;;;;5.43;1.60;;;;;;;14.82;55.42;99897.47;5101169;28;20487;-61
2023/01/01 06:54:26;;;;;;;3.57;1.27;;;;;;;14.94;54.49;99895.22;5083815;28;20444;-62
2023/01/01 06:56:54;;;;;;;3.10;1.87;;;;;;;14.94;54.37;99892.53;5096350;28;20521;-62
2023/01/01 06:59:21;;;;;;;5.13;1.63;;;;;;;14.97;54.31;99872.50;5092101;28;20450;-62
2023/01/01 07:01:48;;;;;;;4.83;1.50;;;;;;;14.97;54.38;99888.66;5098435;28;20524;-62
2023/01/01 07:04:15;;;;;;;5.90;1.60;;;;;;;14.85;54.81;99877.47;5081245;28;20448;-61
2023/01/01 07:06:42;;;;;;;2.93;1.37;;;;;;;14.91;54.88;99900.13;5096434;28;20501;-61
2023/01/01 07:09:09;;;;;;;3.93;1.80;;;;;;;14.97;54.86;99902.94;5089660;28;20465;-61
2023/01/01 07:11:36;;;;;;;4.30;1.20;;;;;;;14.95;55.11;99912.25;5087817;28;20475;-61
2023/01/01 07:14:04;;;;;;;6.60;2.17;;;;;;;14.90;55.20;99920.00;5099270;28;20438;-61
2023/01/01 07:16:31;;;;;;;4.50;1.30;;;;;;;14.96;54.48;99924.66;5094839;28;20557;-62
2023/01/01 07:18:57;;;;;;;4.43;1.40;;;;;;;14.95;54.59;99929.22;5099663;28;20970;-62
2023/01/01 07:21:29;;;;;;;3.30;1.57;;;;;;;14.97;54.94;99940.63;5080697;28;20513;-62
2023/01/01 07:23:57;;;;;;;4.93;1.40;;;;;;;14.98;55.00;99952.25;5090932;28;20442;-62
2023/01/01 07:26:25;;;;;;;6.83;1.77;;;;;;;14.94;54.98;99954.44;5087519;28;20513;-62
2023/01/01 07:28:52;;;;;;;4.10;1.63;;;;;;;14.88;54.87;99945.22;5099188;28;20874;-62
2023/01/01 07:31:20;;;;;;;2.77;1.60;;;;;;;14.85;55.14;99952.81;5096860;28;20475;-61
2023/01/01 07:33:47;;;;;;;3.83;1.40;;;;;;;14.90;55.67;99965.75;5100850;28;20473;-62
2023/01/01 07:36:14;;;;;;;5.70;1.83;;;;;;;14.88;55.67;99958.69;5074441;28;20509;-62
2023/01/01 07:38:41;;;;;;;3.37;1.40;;;;;;;14.84;55.71;99962.75;5100486;28;20460;-62
2023/01/01 07:41:08;;;;;;;3.50;1.90;;;;;;;14.94;55.72;99965.22;5096170;28;20478;-62
2023/01/01 07:43:35;;;;;;;3.90;1.27;;;;;;;14.86;55.36;99970.66;5089759;28;20615;-62
2023/01/01 07:46:02;;;;;;;4.63;1.80;;;;;;;14.90;55.29;99955.00;5086066;28;20475;-61
2023/01/01 07:48:30;;;;;;;4.03;1.20;;;;;;;14.96;55.20;99973.13;5082246;28;20463;-62
2023/01/01 07:50:57;;;;;;;3.60;1.50;;;;;;;14.97;55.22;99970.25;5097605;28;20514;-62
2023/01/01 07:53:24;;;;;;;3.50;1.33;;;;;;;14.92;55.77;99967.25;5088850;28;20451;-61
2023/01/01 07:55:51;;;;;;;5.00;1.33;;;;;;;15.02;57.12;99978.63;5078250;28;21002;-61
2023/01/01 07:58:17;;;;;;;3.53;1.47;;;;;;;14.76;58.85;99989.69;5079892;28;20480;-61
2023/01/01 08:00:47;;;;;;;2.87;1.43;;;;;;;14.74;60.39;99988.19;5078277;28;20480;-60
2023/01/01 08:03:13;;;;;;;4.47;1.67;;;;;;;14.62;61.88;99991.25;5078369;28;20507;-61
2023/01/01 08:05:41;;;;;;;2.90;1.93;;;;;;;14.38;63.54;100002.88;5075303;28;20572;-60
2023/01/01 08:08:09;;;;;;;3.73;1.30;;;;;;;14.31;65.10;100007.28;5079221;28;20454;-61
2023/01/01 08:10:36;;;;;;;7.43;1.90;;;;;;;14.28;63.74;100015.69;5078336;28;20475;-61
2023/01/01 08:13:04;;;;;;;4.13;1.37;;;;;;;14.28;65.41;100016.50;5079797;28;20452;-61
2023/01/01 08:15:31;;;;;;;4.50;1.80;;;;;;;14.28;66.66;100024.56;5077689;28;20496;-61
2023/01/01 08:17:58;;;;;;;2.73;1.20;;;;;;;14.10;67.67;100027.47;5078848;28;20449;-61
2023/01/01 08:20:25;;;;;;;3.27;2.33;;;;;;;14.05;68.53;100027.13;5077364;28;20438;-61
2023/01/01 08:22:54;;;;;;;3.70;1.50;;;;;;;14.20;67.35;100037.19;5079583;28;20439;-61
2023/01/01 08:25:21;;;;;;;6.80;2.00;;;;;;;14.04;67.69;100032.66;5077100;28;20454;-61
2023/01/01 08:27:47;;;;;;;4.60;2.30;;;;;;;14.21;67.21;100044.25;5077700;28;20625;-60
2023/01/01 08:30:15;;;;;;;2.93;1.50;;;;;;;14.11;67.13;100039.91;5078570;28;20439;-60
2023/01/01 08:32:42;;;;;;;5.03;1.70;;;;;;;14.04;68.25;100049.63;5077275;28;20454;-61
2023/01/01 08:35:09;;;;;;;6.33;1.77;;;;;;;14.08;68.52;100063.59;5077829;28;20446;-61
2023/01/01 08:37:36;;;;;;;5.30;1.80;;;;;;;14.07;69.16;100070.81;5078871;28;20455;-61
2023/01/01 08:40:06;;;;;;;4.33;1.70;;;;;;;14.06;68.92;100084.41;5074755;28;20540;-61
2023/01/01 08:42:33;;;;;;;4.03;1.40;;;;;;;14.15;68.94;100098.69;5071808;28;20466;-71
2023/01/01 08:44:59;;;;;;;4.83;1.60;;;;;;;14.25;68.62;100099.38;5070290;28;20869;-72
2023/01/01 08:47:27;;;;;;;3.83;1.70;;;;;;;14.17;68.59;100112.84;5069310;28;20947;-72
2023/01/01 08:49:53;;;;;;;4.50;1.47;;;;;;;14.14;69.05;100122.06;5076105;28;20447;-71
2023/01/01 08:52:21;;;;;;;2.10;1.43;;;;;;;14.09;71.06;100137.84;5075252;28;20494;-71
2023/01/01 08:54:48;;;;;;;5.33;2.27;;;;;;;13.74;75.00;100145.19;5069003;28;20791;-72
2023/01/01 08:57:16;;;;;;;4.03;2.00;;;;;;;13.40;79.97;100147.91;5070429;28;20481;-71
2023/01/01 08:59:43;;;;;;;4.93;1.70;;;;;;;13.36;81.23;100142.03;5071381;28;20435;-71
2023/01/01 09:02:10;;;;;;;6.87;1.83;;;;;;;13.39;82.65;100140.88;5074324;28;20480;-71
2023/01/01 09:04:37;;;;;;;5.70;2.27;;;;;;;13.19;83.26;100141.06;5075509;28;20445;-71
2023/01/01 09:07:04;;;;;;;4.97;2.23;;;;;;;13.18;83.65;100142.91;5072818;28;20479;-72
2023/01/01 09:09:30;;;;;;;4.53;1.60;;;;;;;13.18;85.40;100150.97;5071591;28;20441;-71
2023/01/01 09:12:02;;;;;;;6.70;1.80;;;;;;;13.24;86.14;100159.38;5059351;28;20514;-71
2023/01/01 09:14:31;;;;;;;3.83;2.00;;;;;;;13.10;87.45;100174.25;5067861;28;20457;-71
2023/01/01 09:16:58;;;;;;;2.83;1.90;;;;;;;13.14;87.64;100176.47;5068149;28;20481;-71
2023/01/01 09:19:25;;;;;;;4.40;2.37;;;;;;;13.07;87.83;100178.09;5066711;28;20452;-71
2023/01/01 09:21:51;;;;;;;5.67;2.00;;;;;;;13.13;88.27;100185.50;5066125;28;20532;-72
2023/01/01 09:24:18;;;;;;;4.30;1.70;;;;;;;13.15;88.37;100193.41;5069092;28;20461;-72
2023/01/01 09:26:45;;;;;;;3.13;1.87;;;;;;;13.22;88.95;100194.44;5060275;28;20830;-72
2023/01/01 09:29:17;;;;;;;3.10;2.10;;;;;;;13.05;90.38;100201.53;5066964;28;20450;-71
2023/01/01 09:31:45;;;;;;;5.70;2.23;;;;;;;13.08;90.95;100198.56;5051341;28;20521;-71
2023/01/01 09:34:12;;;;;;;4.43;1.93;;;;;;;12.90;90.41;100205.84;5074905;28;20449;-72
2023/01/01 09:36:39;;;;;;;4.63;1.50;;;;;;;13.03;92.16;100222.34;5081808;28;20485;-72
2023/01/01 09:39:05;;;;;;;4.80;2.43;;;;;;;12.94;92.31;100234.03;5082521;28;20496;-72
2023/01/01 09:41:44;;;;;;;3.10;2.30;;;;;;;13.08;93.12;100238.81;5088543;28;20532;-72
2023/01/01 09:44:20;;;;;;;3.30;1.80;;;;;;;12.82;95.04;100253.03;5103938;28;20452;-71
2023/01/01 09:46:49;;;;;;;4.07;2.47;;;;;;;12.72;97.00;100268.38;5102512;28;20475;-71
2023/01/01 09:49:18;;;;;;;6.37;2.07;;;;;;;12.55;100.00;100278.13;5100685;28;20456;-71
2023/01/01 09:51:51;;;;;;;5.93;2.40;;;;;;;12.62;100.00;100284.56;5101645;28;20475;-71
2023/01/01 09:54:26;;;;;;;8.50;2.20;;;;;;;12.49;100.00;100293.97;5102769;28;20443;-72
2023/01/01 09:56:56;;;;;;;8.40;2.67;;;;;;;12.14;100.00;100284.91;5096164;28;21599;-71
2023/01/01 09:59:23;;;;;;;6.20;2.30;;;;;;;11.82;100.00;100288.81;5082572;28;20444;-71
2023/01/01 10:01:57;;;;;;;4.10;1.90;;;;;;;11.71;100.00;100283.66;5082198;28;20511;-71
2023/01/01 10:04:34;;;;;;;3.90;1.90;;;;;;;11.65;100.00;100279.75;5080993;28;20546;-71
2023/01/01 10:07:16;;;;;;;1.50;1.37;;;;;;;11.50;100.00;100268.66;5068701;28;20472;-71
2023/01/01 10:09:49;;;;;;;2.47;1.60;;;;;;;11.67;100.00;100267.88;5069326;28;20444;-72
2023/01/01 10:12:20;;;;;;;3.27;2.10;;;;;;;11.54;100.00;100253.97;5073884;28;20475;-71
2023/01/01 10:14:50;;;;;;;2.33;1.70;;;;;;;11.65;100.00;100252.97;5081538;28;20476;-71
2023/01/01 10:17:21;;;;;;;5.07;1.43;;;;;;;11.53;100.00;100244.25;5080757;28;21107;-71
2023/01/01 10:19:50;;;;;;;5.13;1.73;;;;;;;11.61;100.00;100256.91;5076588;28;20522;-71
2023/01/01 10:22:19;;;;;;;2.33;1.60;;;;;;;11.62;100.00;100258.59;5076285;28;20494;-71
2023/01/01 10:24:48;;;;;;;3.60;2.10;;;;;;;11.51;100.00;100262.31;5079428;28;20445;-71
2023/01/01 10:27:26;;;;;;;2.43;1.57;;;;;;;11.60;100.00;100247.19;5078086;28;20476;-71
2023/01/01 10:29:53;;;;;;;3.33;2.50;;;;;;;11.84;100.00;100252.03;5079158;28;20464;-71
2023/01/01 10:32:28;;;;;;;3.60;2.10;;;;;;;11.86;100.00;100250.88;5074418;28;20481;-71
2023/01/01 10:34:55;;;;;;;5.47;1.93;;;;;;;11.95;100.00;100242.97;5078902;28;20458;-72
2023/01/01 10:37:22;;;;;;;3.53;1.90;;;;;;;11.94;100.00;100252.00;5075756;28;20488;-73
2023/01/01 10:39:49;;;;;;;7.73;2.20;;;;;;;12.01;100.00;100253.94;5073085;28;20888;-73
2023/01/01 10:42:16;;;;;;;3.10;1.70;;;;;;;12.07;100.00;100271.25;5082669;28;20475;-72
2023/01/01 10:44:43;;;;;;;4.57;2.03;;;;;;;11.95;100.00;100254.53;5080204;28;20453;-72
2023/01/01 10:47:27;;;;;;;6.73;1.67;;;;;;;11.86;100.00;100242.00;5088482;28;20750;-73
2023/01/01 10:49:55;;;;;;;2.13;1.40;;;;;;;11.93;100.00;100243.13;5090287;28;20931;-73
2023/01/01 10:52:25;;;;;;;6.23;1.73;;;;;;;11.92;100.00;100237.91;5084458;28;20503;-72
2023/01/01 10:54:52;;;;;;;3.20;2.10;;;;;;;12.03;100.00;100240.38;5094712;28;20981;-72
2023/01/01 10:57:22;;;;;;;4.77;2.10;;;;;;;12.13;100.00;100251.88;5090845;28;20491;-72
2023/01/01 10:59:48;;;;;;;4.90;2.63;;;;;;;12.14;100.00;100253.56;5087441;28;20451;-73
2023/01/01 11:02:21;;;;;;;3.30;2.20;;;;;;;12.10;100.00;100262.06;5075733;28;20480;-72
2023/01/01 11:04:51;;;;;;;5.60;2.67;;;;;;;12.13;100.00;100251.88;5086753;28;20464;-72
2023/01/01 11:07:21;;;;;;;5.67;2.60;;;;;;;11.98;100.00;100248.03;5095439;28;20491;-74
2023/01/01 11:09:49;;;;;;;4.53;2.37;;;;;;;12.02;100.00;100239.53;5099613;28;20473;-73
2023/01/01 11:12:20;;;;;;;2.97;2.30;;;;;;;12.04;100.00;100232.19;5099598;28;20479;-73
2023/01/01 11:14:52;;;;;;;2.60;2.07;;;;;;;12.08;100.00;100223.84;5087899;28;20467;-73
2023/01/01 11:17:21;;;;;;;4.40;3.27;;;;;;;12.09;100.00;100242.47;5076801;28;20499;-73
2023/01/01 11:19:51;;;;;;;6.80;2.47;;;;;;;12.05;100.00;100225.84;5075811;28;20475;-72
2023/01/01 11:22:36;;;;;;;4.33;2.93;;;;;;;12.05;100.00;100217.81;5078379;28;20510;-72
2023/01/01 11:25:05;;;;;;;4.87;3.50;;;;;;;12.17;100.00;100221.13;5082013;28;20448;-71
2023/01/01 11:27:32;;;;;;;7.87;3.20;;;;;;;12.13;100.00;100227.75;5063226;28;20498;-71
2023/01/01 11:30:23;;;;;;;5.13;3.30;;;;;;;12.19;100.00;100226.31;5080214;28;20452;-72
2023/01/01 11:32:51;;;;;;;3.87;3.10;;;;;;;12.20;100.00;100215.47;5078698;28;20456;-66
2023/01/01 11:35:22;;;;;;;4.23;3.30;;;;;;;12.23;100.00;100233.88;5074410;28;20461;-75
2023/01/01 11:37:49;;;;;;;4.57;3.73;;;;;;;12.22;100.00;100244.75;5064387;28;20499;-75
2023/01/01 11:40:18;;;;;;;8.17;3.97;;;;;;;12.37;100.00;100235.19;5074280;28;20506;-75